Time;durP1;ratioP1;P1;durP2;ratioP2;P2;SDS_P1;SDS_P2;PMS_P1;PMS_P2;Temp;Humidity;BMP_temperature;BMP_pressure;BME280_temperature;BME280_humidity;BME280_pressure;Samples;Min_cycle;Max_cycle;Signal;HPM_P1;HPM_P2
2022/04/24 00:00:27;;;;;;;37.40;19.53;;;8.70;99.90;;;;;;5054460;28;20183;-52
2022/04/24 00:02:53;;;;;;;35.00;18.50;;;8.70;99.90;;;;;;5037620;28;20273;-53
2022/04/24 00:05:19;;;;;;;32.93;18.13;;;8.60;99.90;;;;;;5053772;28;20214;-55
2022/04/24 00:07:45;;;;;;;29.23;17.70;;;8.70;99.90;;;;;;5037750;28;20208;-52
2022/04/24 00:10:11;;;;;;;31.77;17.60;;;8.70;99.90;;;;;;5054119;28;20188;-55
2022/04/24 00:12:37;;;;;;;28.60;15.83;;;8.70;99.90;;;;;;5037379;28;20252;-52
2022/04/24 00:15:03;;;;;;;30.27;16.43;;;8.70;99.90;;;;;;5072275;28;20187;-53
2022/04/24 00:17:31;;;;;;;25.77;16.20;;;8.70;99.90;;;;;;5054304;28;20313;-49
2022/04/24 00:19:57;;;;;;;26.47;15.10;;;8.60;99.90;;;;;;5038315;28;20678;-51
2022/04/24 00:22:23;;;;;;;21.77;14.10;;;8.60;99.90;;;;;;5037811;28;20171;-48
2022/04/24 00:24:49;;;;;;;26.70;14.87;;;8.70;99.90;;;;;;5054243;28;20175;-52
2022/04/24 00:27:15;;;;;;;25.77;14.80;;;8.70;99.90;;;;;;5020463;28;20208;-52
2022/04/24 00:29:43;;;;;;;24.07;14.90;;;8.70;99.90;;;;;;5020675;28;20181;-48
2022/04/24 00:32:09;;;;;;;26.20;16.30;;;8.70;99.90;;;;;;5054557;28;20638;-50
2022/04/24 00:34:35;;;;;;;25.87;15.33;;;8.60;99.90;;;;;;5076068;28;20175;-49
2022/04/24 00:37:02;;;;;;;26.10;15.03;;;8.60;99.90;;;;;;5092501;28;20183;-49
2022/04/24 00:39:28;;;;;;;24.43;14.77;;;8.60;99.90;;;;;;5041239;28;20185;-54
2022/04/24 00:41:54;;;;;;;23.83;13.93;;;8.50;99.90;;;;;;5057360;28;20178;-53
2022/04/24 00:44:20;;;;;;;24.83;14.93;;;8.50;99.90;;;;;;5057598;28;20183;-54
2022/04/24 00:46:56;;;;;;;24.20;14.47;;;8.40;99.90;;;;;;5071789;28;20219;-52
2022/04/24 00:49:23;;;;;;;30.47;13.97;;;8.40;99.90;;;;;;5053976;28;20272;-52
2022/04/24 00:51:50;;;;;;;26.47;14.73;;;8.30;99.90;;;;;;5037193;28;20183;-51
2022/04/24 00:54:16;;;;;;;33.30;14.23;;;8.20;99.90;;;;;;5071579;28;20244;-49
2022/04/24 00:56:43;;;;;;;27.23;13.90;;;8.20;99.90;;;;;;5053625;28;20510;-52
2022/04/24 00:59:11;;;;;;;22.53;14.40;;;8.10;99.90;;;;;;5053665;28;20240;-54
2022/04/24 01:01:37;;;;;;;30.10;14.83;;;8.10;99.90;;;;;;5071368;28;20515;-51
2022/04/24 01:04:05;;;;;;;35.20;17.10;;;8.10;99.90;;;;;;5054056;28;20178;-54
2022/04/24 01:06:37;;;;;;;24.67;14.77;;;8.10;99.90;;;;;;5071957;28;20181;-53
2022/04/24 01:09:17;;;;;;;29.93;15.97;;;8.00;99.90;;;;;;5053580;28;20243;-54
2022/04/24 01:11:45;;;;;;;28.53;15.93;;;8.00;99.90;;;;;;5053826;28;20521;-52
2022/04/24 01:14:12;;;;;;;26.10;15.33;;;8.10;99.90;;;;;;5038122;28;20187;-49
2022/04/24 01:16:39;;;;;;;30.17;17.10;;;8.10;99.90;;;;;;5072203;28;20179;-53
2022/04/24 01:19:06;;;;;;;31.50;16.77;;;8.00;99.90;;;;;;5071726;28;20219;-49
2022/04/24 01:21:34;;;;;;;29.27;16.93;;;8.00;99.90;;;;;;5072018;28;20192;-54
2022/04/24 01:24:00;;;;;;;28.37;16.63;;;7.90;99.90;;;;;;5071773;28;20529;-53
2022/04/24 01:26:27;;;;;;;31.97;16.53;;;7.80;99.90;;;;;;5037120;28;20170;-54
2022/04/24 01:28:53;;;;;;;27.20;15.93;;;7.80;99.90;;;;;;5037295;28;20565;-51
2022/04/24 01:31:19;;;;;;;25.27;14.83;;;7.70;99.90;;;;;;5053982;28;20193;-52
2022/04/24 01:33:45;;;;;;;26.93;15.00;;;7.60;99.90;;;;;;5053646;28;20517;-49
2022/04/24 01:36:12;;;;;;;25.63;15.83;;;7.50;99.90;;;;;;5089241;28;20534;-50
2022/04/24 01:38:40;;;;;;;29.20;15.83;;;7.30;99.90;;;;;;5056950;28;20279;-52
2022/04/24 01:41:07;;;;;;;27.93;16.03;;;7.10;99.90;;;;;;5060899;28;20317;-51
2022/04/24 01:43:36;;;;;;;28.87;15.73;;;7.10;99.90;;;;;;5040417;28;20182;-48
2022/04/24 01:46:06;;;;;;;28.33;15.13;;;7.00;99.90;;;;;;5075407;28;20173;-52
2022/04/24 01:48:35;;;;;;;28.77;15.10;;;6.90;99.90;;;;;;5057059;28;20185;-50
2022/04/24 01:51:06;;;;;;;34.20;19.60;;;6.80;99.90;;;;;;5041103;28;20538;-53
2022/04/24 01:53:32;;;;;;;26.13;16.23;;;6.80;99.90;;;;;;5056672;28;20185;-50
2022/04/24 01:56:05;;;;;;;26.07;15.23;;;6.80;99.90;;;;;;5074866;28;20219;-52
2022/04/24 01:58:32;;;;;;;31.90;16.33;;;6.80;99.90;;;;;;5056944;28;20596;-51
2022/04/24 02:00:58;;;;;;;31.67;17.07;;;6.80;99.90;;;;;;5056341;28;20181;-52
2022/04/24 02:03:26;;;;;;;35.63;17.73;;;6.90;99.90;;;;;;5074596;28;20173;-52
2022/04/24 02:05:52;;;;;;;35.07;17.07;;;6.90;99.90;;;;;;5056373;28;20275;-52
2022/04/24 02:08:18;;;;;;;28.40;16.97;;;6.80;99.90;;;;;;5056755;28;20192;-54
2022/04/24 02:10:45;;;;;;;30.27;17.47;;;6.80;99.90;;;;;;5074570;28;20169;-55
2022/04/24 02:13:11;;;;;;;34.90;17.70;;;6.70;99.90;;;;;;5056553;28;20618;-52
2022/04/24 02:15:37;;;;;;;33.97;18.30;;;6.60;99.90;;;;;;5056360;28;20172;-57
2022/04/24 02:18:03;;;;;;;33.03;18.80;;;6.60;99.90;;;;;;5073192;28;20215;-51
2022/04/24 02:20:30;;;;;;;34.30;19.57;;;6.50;99.90;;;;;;5074362;28;20643;-52
2022/04/24 02:22:57;;;;;;;33.83;18.80;;;6.50;99.90;;;;;;5074011;28;20448;-52
2022/04/24 02:25:25;;;;;;;37.57;18.87;;;6.50;99.90;;;;;;5074578;28;20517;-50
2022/04/24 02:27:53;;;;;;;34.70;18.03;;;6.40;99.90;;;;;;5074489;28;20215;-53
2022/04/24 02:30:24;;;;;;;32.57;18.50;;;6.30;99.90;;;;;;5056372;28;20643;-53
2022/04/24 02:32:50;;;;;;;36.57;19.57;;;6.20;99.90;;;;;;5055895;28;20166;-50
2022/04/24 02:35:17;;;;;;;37.10;19.90;;;6.20;99.90;;;;;;5084239;28;20837;-51
2022/04/24 02:37:44;;;;;;;39.53;18.23;;;6.20;99.90;;;;;;5075947;28;20298;-56
2022/04/24 02:40:11;;;;;;;34.80;18.83;;;6.10;99.90;;;;;;5076154;28;20213;-51
2022/04/24 03:57:23;;;;;;;48.07;26.07;;;5.70;99.90;;;;;;5181337;27;20541;-61
2022/04/24 03:59:49;;;;;;;49.57;23.70;;;6.00;99.90;;;;;;5164276;27;20562;-61
2022/04/24 04:02:16;;;;;;;43.53;22.93;;;6.10;99.90;;;;;;5150359;27;20178;-61
2022/04/24 04:04:41;;;;;;;41.70;22.97;;;6.20;99.90;;;;;;5150409;27;20206;-61
2022/04/24 04:07:07;;;;;;;46.77;23.00;;;6.30;99.90;;;;;;5149319;27;20220;-61
2022/04/24 04:09:33;;;;;;;41.43;23.03;;;6.40;99.90;;;;;;5150845;27;20592;-61
2022/04/24 04:11:59;;;;;;;47.37;23.00;;;6.50;99.90;;;;;;5149714;27;20595;-62
2022/04/24 04:14:24;;;;;;;51.77;23.27;;;6.60;99.90;;;;;;5171406;27;20182;-62
2022/04/24 04:16:50;;;;;;;47.17;22.53;;;6.60;99.90;;;;;;5171323;27;20252;-62
2022/04/24 04:19:17;;;;;;;45.37;22.47;;;6.70;99.90;;;;;;5171020;27;20175;-62
2022/04/24 04:21:45;;;;;;;45.47;23.37;;;6.80;99.90;;;;;;5171364;27;20172;-62
2022/04/24 04:24:12;;;;;;;42.30;22.23;;;6.90;99.90;;;;;;5171435;27;20170;-62
2022/04/24 04:26:38;;;;;;;46.77;23.50;;;7.00;99.90;;;;;;5170952;27;20218;-62
2022/04/24 04:29:04;;;;;;;41.67;22.77;;;7.00;99.90;;;;;;5170508;27;20190;-62
2022/04/24 04:31:30;;;;;;;45.40;21.97;;;7.00;99.90;;;;;;5149928;27;20276;-62
2022/04/24 04:33:55;;;;;;;51.00;24.17;;;7.00;99.90;;;;;;5150030;27;20227;-62
2022/04/24 04:36:21;;;;;;;41.97;23.07;;;7.10;99.90;;;;;;5149794;27;20187;-62
2022/04/24 04:38:47;;;;;;;45.73;24.67;;;7.10;99.90;;;;;;5148809;27;20222;-62
2022/04/24 04:41:12;;;;;;;41.63;23.10;;;7.20;99.90;;;;;;5149833;27;20190;-67
2022/04/24 04:43:38;;;;;;;43.23;23.47;;;7.30;99.90;;;;;;5150257;27;20207;-62
2022/04/24 04:46:04;;;;;;;42.73;22.27;;;7.30;99.90;;;;;;5149865;27;20692;-62
2022/04/24 04:48:30;;;;;;;40.87;23.17;;;7.40;99.90;;;;;;5149729;27;20608;-62
2022/04/24 04:50:56;;;;;;;45.87;23.77;;;7.50;99.90;;;;;;5149666;27;20186;-62
2022/04/24 04:53:22;;;;;;;42.83;24.30;;;7.60;99.90;;;;;;5149826;27;20640;-62
2022/04/24 04:55:49;;;;;;;45.33;22.73;;;7.70;99.90;;;;;;5149527;27;20222;-62
2022/04/24 04:58:15;;;;;;;40.20;22.27;;;7.80;99.90;;;;;;5136404;27;20181;-62
2022/04/24 05:00:40;;;;;;;42.07;22.90;;;7.90;99.90;;;;;;5136039;27;20175;-62
2022/04/24 05:03:06;;;;;;;45.77;23.30;;;8.00;99.90;;;;;;5135592;27;20505;-63
2022/04/24 05:05:33;;;;;;;41.07;21.57;;;8.10;99.90;;;;;;5156226;27;20214;-61
2022/04/24 05:07:59;;;;;;;41.93;22.93;;;8.20;99.90;;;;;;5156209;27;20180;-60
2022/04/24 05:10:24;;;;;;;42.63;21.60;;;8.30;99.90;;;;;;5156119;27;20206;-61
2022/04/24 05:12:50;;;;;;;35.83;20.27;;;8.40;99.90;;;;;;5156397;27;20203;-62
2022/04/24 05:15:16;;;;;;;38.03;20.83;;;8.50;99.90;;;;;;5156072;27;20568;-61
2022/04/24 05:17:43;;;;;;;41.23;21.67;;;8.60;99.90;;;;;;5154804;27;20184;-61
2022/04/24 05:20:12;;;;;;;39.33;20.90;;;8.60;99.90;;;;;;5156381;27;20225;-61
2022/04/24 05:22:41;;;;;;;35.73;19.67;;;8.70;99.90;;;;;;5155788;27;20187;-61
2022/04/24 05:25:09;;;;;;;37.33;18.73;;;8.80;99.90;;;;;;5156113;27;20232;-62
2022/04/24 05:27:36;;;;;;;36.20;19.27;;;8.90;99.90;;;;;;5155854;27;20197;-62
2022/04/24 05:30:05;;;;;;;34.57;18.37;;;9.00;99.90;;;;;;5155980;27;20179;-62
2022/04/24 05:32:38;;;;;;;37.07;17.90;;;9.10;99.90;;;;;;5155780;27;20177;-62
2022/04/24 05:35:04;;;;;;;32.50;18.73;;;9.10;99.90;;;;;;5154770;27;20695;-62
2022/04/24 05:37:30;;;;;;;33.90;18.20;;;9.20;99.90;;;;;;5155569;27;20178;-62
2022/04/24 05:39:56;;;;;;;36.30;20.63;;;9.20;99.90;;;;;;5154874;27;20253;-62
2022/04/24 05:42:21;;;;;;;31.17;17.80;;;9.30;99.90;;;;;;5155539;27;20188;-63
2022/04/24 05:44:47;;;;;;;36.63;17.80;;;9.40;99.90;;;;;;5155495;27;20516;-63
2022/04/24 05:47:13;;;;;;;28.87;16.53;;;9.50;99.90;;;;;;5155496;27;20194;-62
2022/04/24 05:49:38;;;;;;;38.03;17.30;;;9.50;99.90;;;;;;5154738;27;20702;-61
2022/04/24 05:52:04;;;;;;;27.70;16.50;;;9.60;99.90;;;;;;5155310;27;20185;-62
2022/04/24 05:54:30;;;;;;;29.17;16.43;;;9.70;99.90;;;;;;5155200;27;20178;-62
2022/04/24 05:56:56;;;;;;;30.03;16.73;;;9.80;99.90;;;;;;5154119;27;20325;-62
2022/04/24 05:59:22;;;;;;;26.70;16.83;;;9.90;99.90;;;;;;5155405;27;20262;-62
2022/04/24 06:01:47;;;;;;;26.57;14.97;;;10.00;99.90;;;;;;5154181;27;20186;-63
2022/04/24 06:04:13;;;;;;;22.70;14.00;;;10.10;99.90;;;;;;5146088;27;20187;-63
2022/04/24 06:06:39;;;;;;;19.77;12.00;;;10.10;99.90;;;;;;5133113;27;20326;-62
2022/04/24 06:09:06;;;;;;;20.03;12.60;;;10.20;99.90;;;;;;5133489;27;20641;-62
2022/04/24 06:11:32;;;;;;;24.93;14.20;;;10.20;99.90;;;;;;5133202;27;20179;-61
2022/04/24 06:13:58;;;;;;;17.37;10.97;;;10.40;99.90;;;;;;5134726;27;20192;-62
2022/04/24 06:16:24;;;;;;;18.00;10.20;;;10.40;99.90;;;;;;5134379;27;20188;-62
2022/04/24 06:18:49;;;;;;;15.20;9.80;;;10.50;99.90;;;;;;5133131;27;20185;-62
2022/04/24 06:21:15;;;;;;;18.53;10.57;;;10.60;99.90;;;;;;5134493;27;20533;-61
2022/04/24 06:23:41;;;;;;;17.40;10.40;;;10.70;99.90;;;;;;5132644;27;20264;-61
2022/04/24 06:26:06;;;;;;;27.80;13.60;;;10.90;99.90;;;;;;5134013;27;20689;-62
2022/04/24 06:28:32;;;;;;;24.33;13.77;;;11.00;99.90;;;;;;5132444;27;20181;-62
2022/04/24 06:30:58;;;;;;;24.10;14.50;;;11.10;99.90;;;;;;5134151;27;20196;-62
2022/04/24 06:33:24;;;;;;;23.10;14.37;;;11.30;99.90;;;;;;5133799;27;20187;-62
2022/04/24 06:35:49;;;;;;;34.33;14.60;;;11.40;99.90;;;;;;5133903;27;20186;-63
2022/04/24 06:38:16;;;;;;;26.77;14.23;;;11.50;99.90;;;;;;5133474;27;20666;-63
2022/04/24 06:40:41;;;;;;;22.10;13.73;;;11.50;99.90;;;;;;5134260;27;20185;-62
2022/04/24 06:43:07;;;;;;;29.70;14.53;;;11.50;99.90;;;;;;5133585;27;20182;-62
2022/04/24 06:45:35;;;;;;;28.87;14.47;;;11.40;99.90;;;;;;5133659;27;20217;-62
2022/04/24 06:48:04;;;;;;;25.47;14.97;;;11.50;99.90;;;;;;5133516;27;20534;-62
2022/04/24 06:50:30;;;;;;;28.23;15.47;;;11.60;99.90;;;;;;5133632;27;20189;-62
2022/04/24 06:53:03;;;;;;;25.97;15.23;;;11.60;99.90;;;;;;5133487;27;20177;-62
2022/04/24 06:55:31;;;;;;;28.03;14.50;;;11.80;99.90;;;;;;5132636;27;20328;-65
2022/04/24 06:57:58;;;;;;;25.53;14.83;;;11.80;99.90;;;;;;5133547;27;20183;-62
2022/04/24 07:00:26;;;;;;;27.27;14.20;;;11.90;99.90;;;;;;5133273;27;20179;-66
2022/04/24 07:02:52;;;;;;;40.20;16.53;;;12.00;99.90;;;;;;5133547;27;20231;-63
2022/04/24 07:05:23;;;;;;;37.80;16.70;;;11.90;99.90;;;;;;5151763;27;20209;-63
2022/04/24 07:07:49;;;;;;;27.93;16.03;;;11.90;99.90;;;;;;5154033;27;20179;-63
2022/04/24 07:10:15;;;;;;;29.17;16.70;;;11.80;99.90;;;;;;5153514;27;20236;-63
2022/04/24 07:12:51;;;;;;;28.00;16.53;;;11.90;99.90;;;;;;5153808;27;20182;-63
2022/04/24 07:15:18;;;;;;;29.43;16.90;;;12.00;99.90;;;;;;5154024;27;20181;-62
2022/04/24 07:17:45;;;;;;;31.03;15.20;;;12.00;99.90;;;;;;5153580;27;20481;-62
2022/04/24 07:20:13;;;;;;;27.10;14.77;;;12.00;99.90;;;;;;5153601;27;20620;-64
2022/04/24 07:22:47;;;;;;;27.00;16.37;;;12.20;99.90;;;;;;5153232;27;20188;-63
2022/04/24 07:25:15;;;;;;;24.17;15.10;;;12.20;99.90;;;;;;5153645;27;20217;-63
2022/04/24 07:27:41;;;;;;;28.13;15.23;;;12.20;99.90;;;;;;5153277;27;20190;-63
2022/04/24 07:30:13;;;;;;;29.67;14.20;;;12.30;99.90;;;;;;5153602;27;20173;-64
2022/04/24 07:32:50;;;;;;;28.00;14.60;;;12.30;99.90;;;;;;5153508;27;20182;-62
2022/04/24 07:35:18;;;;;;;24.00;14.40;;;12.40;99.90;;;;;;5153662;27;20208;-63
2022/04/24 07:37:45;;;;;;;21.47;12.07;;;12.40;99.90;;;;;;5153406;27;20162;-62
2022/04/24 07:40:16;;;;;;;21.20;11.57;;;12.60;99.90;;;;;;5155282;27;20183;-63
2022/04/24 07:42:53;;;;;;;18.77;11.17;;;12.70;99.90;;;;;;5156157;27;20534;-63
2022/04/24 07:45:27;;;;;;;18.67;10.93;;;12.70;99.90;;;;;;5155492;27;20248;-62
2022/04/24 07:47:54;;;;;;;17.43;10.60;;;12.80;99.90;;;;;;5154799;27;20266;-63
2022/04/24 07:50:25;;;;;;;27.60;13.47;;;13.00;99.90;;;;;;5156130;27;20176;-63
2022/04/24 07:52:52;;;;;;;24.70;12.67;;;13.10;99.90;;;;;;5153977;27;20188;-64
2022/04/24 07:55:22;;;;;;;25.57;12.47;;;13.20;99.90;;;;;;5152987;27;20608;-63
2022/04/24 07:57:49;;;;;;;23.07;12.27;;;13.20;99.90;;;;;;5152874;27;20202;-63
2022/04/24 08:00:16;;;;;;;25.80;13.50;;;13.20;99.90;;;;;;5152969;27;20224;-63
2022/04/24 08:02:57;;;;;;;28.37;14.07;;;13.40;99.90;;;;;;5152979;27;20516;-62
2022/04/24 08:05:37;;;;;;;22.97;11.30;;;13.40;99.90;;;;;;5133402;27;20561;-66
2022/04/24 08:08:14;;;;;;;24.83;13.73;;;13.60;99.90;;;;;;5132278;27;20183;-64
2022/04/24 08:10:42;;;;;;;30.57;13.23;;;13.70;99.90;;;;;;5132034;28;20266;-62
2022/04/24 08:13:08;;;;;;;27.33;13.57;;;13.80;99.90;;;;;;5132422;27;20197;-63
2022/04/24 08:15:35;;;;;;;22.43;12.13;;;13.80;99.90;;;;;;5132063;27;20188;-62
2022/04/24 08:18:01;;;;;;;34.03;17.67;;;13.90;99.90;;;;;;5132264;27;20226;-62
2022/04/24 08:20:28;;;;;;;28.33;16.50;;;14.10;99.90;;;;;;5131903;28;20704;-62
2022/04/24 08:22:55;;;;;;;33.93;16.50;;;14.10;99.90;;;;;;5132027;27;20184;-63
2022/04/24 08:25:22;;;;;;;36.33;16.87;;;14.10;99.90;;;;;;5131811;27;20207;-62
2022/04/24 08:27:49;;;;;;;33.87;13.13;;;14.30;99.90;;;;;;5130678;28;20187;-63
2022/04/24 08:30:17;;;;;;;19.77;10.87;;;14.50;99.90;;;;;;5131921;27;20509;-63
2022/04/24 08:32:44;;;;;;;18.70;9.60;;;14.50;99.90;;;;;;5133647;27;20301;-64
2022/04/24 08:35:13;;;;;;;19.37;10.60;;;14.50;99.90;;;;;;5135981;27;20499;-63
2022/04/24 08:37:39;;;;;;;26.47;12.37;;;14.50;99.90;;;;;;5135701;27;20175;-63
2022/04/24 08:40:07;;;;;;;25.53;12.33;;;14.50;99.90;;;;;;5135816;27;20175;-63
2022/04/24 08:42:34;;;;;;;26.63;12.63;;;14.70;99.90;;;;;;5135879;27;20179;-64
2022/04/24 08:45:01;;;;;;;21.33;12.27;;;14.90;99.90;;;;;;5135727;27;20279;-64
2022/04/24 08:47:27;;;;;;;24.23;12.37;;;15.00;99.90;;;;;;5135301;27;20179;-62
2022/04/24 08:49:55;;;;;;;35.03;14.90;;;15.10;99.90;;;;;;5135619;27;20217;-62
2022/04/24 08:52:22;;;;;;;24.50;13.07;;;15.30;99.90;;;;;;5135438;27;20168;-62
2022/04/24 08:54:49;;;;;;;29.20;13.07;;;15.40;99.90;;;;;;5135394;27;20651;-62
2022/04/24 08:57:15;;;;;;;27.30;13.20;;;15.50;99.90;;;;;;5129345;27;20223;-64
2022/04/24 08:59:41;;;;;;;18.37;9.33;;;15.80;99.90;;;;;;5142989;27;20210;-74
2022/04/24 09:02:09;;;;;;;16.07;7.43;;;15.90;99.90;;;;;;5135366;27;20658;-73
2022/04/24 09:04:36;;;;;;;16.87;7.53;;;15.80;99.90;;;;;;5144210;27;20191;-74
2022/04/24 09:07:07;;;;;;;17.57;7.67;;;15.80;99.90;;;;;;5132808;27;20306;-75
2022/04/24 09:09:42;;;;;;;14.17;7.33;;;15.80;99.90;;;;;;5144682;27;20244;-76
2022/04/24 09:12:15;;;;;;;17.33;7.67;;;15.90;99.90;;;;;;5143819;27;20202;-76
2022/04/24 09:14:48;;;;;;;17.87;9.27;;;16.00;99.90;;;;;;5143907;27;20265;-74
2022/04/24 09:17:22;;;;;;;22.80;8.90;;;16.10;99.90;;;;;;5144105;27;20978;-80
2022/04/24 09:19:49;;;;;;;25.03;8.20;;;16.10;99.90;;;;;;5143836;27;20186;-75
2022/04/24 09:22:15;;;;;;;15.40;7.80;;;16.10;99.90;;;;;;5134162;27;20188;-75
2022/04/24 09:24:52;;;;;;;14.97;7.20;;;16.20;99.90;;;;;;5143338;27;20187;-73
2022/04/24 09:27:36;;;;;;;18.23;7.83;;;16.40;99.90;;;;;;5143501;27;20629;-73
2022/04/24 09:30:11;;;;;;;27.40;8.67;;;16.50;99.90;;;;;;5143653;27;20193;-72
2022/04/24 09:32:52;;;;;;;17.93;7.70;;;16.70;99.90;;;;;;5143493;27;20654;-70
2022/04/24 09:35:32;;;;;;;17.40;7.20;;;16.80;99.90;;;;;;5142716;27;20179;-69
2022/04/24 09:38:17;;;;;;;17.90;8.10;;;16.70;99.90;;;;;;5143431;27;20628;-60
2022/04/24 09:40:47;;;;;;;20.27;8.43;;;17.00;99.90;;;;;;5143360;27;20192;-60
2022/04/24 09:43:14;;;;;;;17.60;8.47;;;17.20;99.90;;;;;;5143463;27;20202;-59
2022/04/24 09:45:42;;;;;;;19.13;9.17;;;17.30;99.90;;;;;;5143394;27;20234;-56
2022/04/24 09:48:12;;;;;;;16.30;7.13;;;17.70;99.90;;;;;;5143653;27;20636;-64
2022/04/24 09:50:39;;;;;;;20.23;7.77;;;17.90;99.90;;;;;;5143548;27;20624;-69
2022/04/24 09:53:05;;;;;;;14.17;6.90;;;18.00;99.90;;;;;;5143200;27;20548;-63
2022/04/24 09:55:31;;;;;;;13.97;7.57;;;17.90;99.90;;;;;;5142717;27;20218;-61
2022/04/24 09:57:57;;;;;;;15.87;7.17;;;18.00;99.90;;;;;;5152474;27;20254;-62
2022/04/24 10:00:23;;;;;;;14.63;6.00;;;18.00;99.80;;;;;;5154166;27;20266;-62
2022/04/24 10:02:52;;;;;;;15.30;7.13;;;18.30;98.80;;;;;;5152509;27;20183;-64
2022/04/24 10:05:18;;;;;;;21.20;6.87;;;18.40;98.30;;;;;;5135040;27;20203;-63
2022/04/24 10:07:48;;;;;;;20.58;7.88;;;18.50;98.80;;;;;;5133717;27;20695;-64
2022/04/24 10:10:16;;;;;;;17.13;7.97;;;18.50;98.80;;;;;;5134079;27;20266;-63
2022/04/24 10:12:43;;;;;;;16.90;7.87;;;18.30;98.30;;;;;;5133439;27;20209;-64
2022/04/24 10:15:16;;;;;;;12.10;7.20;;;18.20;99.70;;;;;;5132838;27;20175;-64
2022/04/24 10:18:14;;;;;;;16.58;7.40;;;18.40;98.60;;;;;;5131762;27;20629;-65
2022/04/24 10:20:42;;;;;;;20.48;7.72;;;18.60;98.70;;;;;;5131319;27;20199;-63
2022/04/24 10:23:09;;;;;;;17.65;7.75;;;18.70;98.70;;;;;;5131543;27;20202;-65
2022/04/24 10:25:40;;;;;;;12.43;6.97;;;18.80;97.80;;;;;;5131671;27;20203;-63
2022/04/24 10:28:17;;;;;;;15.75;8.20;;;19.00;97.20;;;;;;5132204;27;20563;-63
2022/04/24 10:31:00;;;;;;;10.43;5.18;;;18.90;97.60;;;;;;5131533;27;20586;-65
2022/04/24 10:33:30;;;;;;;8.77;4.97;;;19.00;94.50;;;;;;5133382;27;20192;-62
2022/04/24 10:36:03;;;;;;;6.75;4.13;;;18.90;93.80;;;;;;5133687;27;20172;-62
2022/04/24 10:38:31;;;;;;;15.55;6.45;;;19.10;93.60;;;;;;5133322;27;20259;-62
2022/04/24 10:41:07;;;;;;;16.67;7.60;;;19.40;94.50;;;;;;5133662;27;20603;-63
2022/04/24 10:43:41;;;;;;;15.27;7.00;;;19.40;95.20;;;;;;5133330;27;20254;-63
2022/04/24 10:46:20;;;;;;;13.85;5.85;;;19.60;95.60;;;;;;5133354;27;20212;-63
2022/04/24 10:48:48;;;;;;;13.77;5.78;;;19.80;93.60;;;;;;5132942;27;20191;-62
2022/04/24 10:51:26;;;;;;;11.52;5.18;;;20.00;92.20;;;;;;5133208;27;20195;-62
2022/04/24 10:53:57;;;;;;;12.75;5.90;;;20.00;92.30;;;;;;5133120;27;20167;-64
2022/04/24 10:56:23;;;;;;;12.18;5.90;;;20.00;91.30;;;;;;5132351;27;20232;-62
2022/04/24 10:58:51;;;;;;;10.93;5.53;;;20.00;90.60;;;;;;5133024;27;20228;-64
2022/04/24 11:01:17;;;;;;;13.75;5.47;;;20.10;90.50;;;;;;5133034;27;20206;-64
2022/04/24 11:03:45;;;;;;;15.20;7.40;;;20.20;90.70;;;;;;5137907;27;20179;-63
2022/04/24 11:06:23;;;;;;;16.05;5.85;;;20.40;90.80;;;;;;5153385;27;20604;-63
2022/04/24 11:08:50;;;;;;;12.75;5.75;;;20.60;89.90;;;;;;5153615;27;20185;-64
2022/04/24 11:11:17;;;;;;;7.90;4.85;;;20.50;86.40;;;;;;5153367;27;20190;-64
2022/04/24 11:13:44;;;;;;;10.68;5.20;;;20.60;84.90;;;;;;5153237;27;20527;-63
2022/04/24 11:16:11;;;;;;;6.47;4.40;;;20.80;83.50;;;;;;5152053;27;20190;-63
2022/04/24 11:18:37;;;;;;;9.40;4.80;;;20.80;82.20;;;;;;5153577;27;20303;-62
2022/04/24 11:21:07;;;;;;;8.50;4.70;;;21.00;81.90;;;;;;5153776;27;20357;-61
2022/04/24 11:23:37;;;;;;;16.55;5.35;;;21.30;78.90;;;;;;5153423;27;20643;-63
2022/04/24 11:26:05;;;;;;;10.65;5.57;;;21.70;78.10;;;;;;5153328;27;20210;-62
2022/04/24 12:12:49;;;;;;;10.20;6.20;;;28.60;52.10;;;;;;5145625;27;20544;-57
2022/04/24 12:15:16;;;;;;;17.08;6.38;;;30.80;48.40;;;;;;5088884;28;20271;-62
2022/04/24 12:17:54;;;;;;;9.32;6.57;;;30.80;46.90;;;;;;5101767;28;20267;-58
2022/04/24 12:20:21;;;;;;;12.77;7.07;;;30.40;46.60;;;;;;5129331;27;20210;-58
2022/04/24 12:22:47;;;;;;;9.98;6.72;;;30.00;47.50;;;;;;5129747;27;20186;-58
2022/04/24 12:25:18;;;;;;;10.77;7.30;;;30.50;47.50;;;;;;5129470;27;20262;-57
2022/04/24 12:27:55;;;;;;;17.70;7.72;;;31.00;46.80;;;;;;5108802;28;20658;-59
2022/04/24 12:30:21;;;;;;;12.20;7.28;;;31.20;45.70;;;;;;5108785;28;20277;-58
2022/04/24 12:32:47;;;;;;;15.82;7.00;;;31.40;45.30;;;;;;5109143;28;20176;-57
2022/04/24 12:35:30;;;;;;;12.60;7.78;;;30.70;45.80;;;;;;5108529;28;20544;-58
2022/04/24 12:37:56;;;;;;;12.27;8.13;;;30.20;45.50;;;;;;5108470;28;20531;-59
2022/04/24 12:40:22;;;;;;;15.73;8.60;;;29.90;46.40;;;;;;5108425;28;20211;-58
2022/04/24 12:42:53;;;;;;;11.65;8.32;;;30.30;46.10;;;;;;5110728;27;20195;-57
2022/04/24 12:45:20;;;;;;;13.05;7.95;;;30.10;45.60;;;;;;5128217;27;20186;-59
2022/04/24 12:47:47;;;;;;;10.48;7.53;;;30.50;45.60;;;;;;5129011;27;20545;-59
2022/04/24 12:50:14;;;;;;;16.42;8.48;;;30.80;45.20;;;;;;5128791;27;20180;-58
2022/04/24 12:52:39;;;;;;;12.60;7.63;;;30.40;45.50;;;;;;5128448;27;20222;-58
2022/04/24 12:55:06;;;;;;;14.55;8.32;;;30.50;46.70;;;;;;5128738;28;20250;-59
2022/04/24 12:57:31;;;;;;;11.07;7.28;;;30.10;45.60;;;;;;5127968;27;20200;-59
2022/04/24 12:59:57;;;;;;;11.32;7.43;;;30.00;46.50;;;;;;5128500;27;20205;-58
2022/04/24 13:02:23;;;;;;;13.25;8.00;;;31.40;44.90;;;;;;5128106;27;20179;-58
2022/04/24 13:04:49;;;;;;;13.95;6.80;;;31.90;44.10;;;;;;5128491;27;20274;-59
2022/04/24 13:07:15;;;;;;;9.63;6.65;;;31.40;43.90;;;;;;5128588;28;20684;-58
2022/04/24 13:09:41;;;;;;;9.55;6.63;;;30.90;44.30;;;;;;5126982;27;20590;-59
2022/04/24 13:12:12;;;;;;;14.00;8.05;;;31.20;44.70;;;;;;5123090;28;20255;-58
2022/04/24 13:14:38;;;;;;;13.45;8.02;;;30.50;45.00;;;;;;5114600;28;20226;-57
2022/04/24 13:19:48;;;;;;;12.57;7.18;;;32.00;44.30;;;;;;5094355;28;20532;-59
2022/04/24 13:22:14;;;;;;;9.55;6.63;;;32.80;42.90;;;;;;5092652;28;20201;-57
2022/04/24 13:24:41;;;;;;;10.85;6.80;;;31.80;42.50;;;;;;5092246;28;20177;-57
2022/04/24 13:27:10;;;;;;;11.13;6.30;;;30.60;43.80;;;;;;5093811;28;20612;-58
2022/04/24 13:29:37;;;;;;;10.40;6.63;;;30.00;44.80;;;;;;5092572;28;20321;-58
2022/04/24 13:32:04;;;;;;;8.75;6.05;;;30.20;44.10;;;;;;5094271;28;20242;-58
2022/04/24 13:34:30;;;;;;;11.70;6.72;;;30.30;44.00;;;;;;5094080;28;20188;-58
2022/04/24 13:39:40;;;;;;;10.35;7.68;;;29.10;47.20;;;;;;5093840;28;20195;-60
2022/04/24 13:42:07;;;;;;;13.25;7.43;;;29.00;47.80;;;;;;5093888;28;20316;-59
2022/04/24 13:44:33;;;;;;;13.65;8.15;;;29.60;47.60;;;;;;5093920;28;20618;-57
2022/04/24 13:47:00;;;;;;;9.57;6.93;;;30.20;46.00;;;;;;5093974;28;20230;-58
2022/04/24 13:49:26;;;;;;;13.32;7.63;;;30.60;45.70;;;;;;5093362;28;20176;-57
2022/04/24 13:51:51;;;;;;;11.40;6.85;;;32.00;44.00;;;;;;5094007;28;20253;-58
2022/04/24 13:54:18;;;;;;;9.77;6.35;;;33.10;42.70;;;;;;5093749;28;20185;-60
2022/04/24 13:56:44;;;;;;;14.32;7.78;;;33.40;41.00;;;;;;5093223;28;20645;-58
2022/04/24 13:59:09;;;;;;;12.13;8.57;;;32.80;41.60;;;;;;5093804;28;20253;-59
2022/04/24 14:01:35;;;;;;;14.52;9.00;;;31.80;44.00;;;;;;5093256;28;20292;-58
2022/04/24 14:04:01;;;;;;;18.33;10.00;;;31.40;44.50;;;;;;5093262;28;20173;-59
2022/04/24 14:06:28;;;;;;;17.27;10.13;;;30.60;45.40;;;;;;5092707;28;20579;-59
2022/04/24 14:08:54;;;;;;;24.83;10.38;;;30.20;46.40;;;;;;5093194;28;20265;-59
2022/04/24 14:11:20;;;;;;;18.10;9.07;;;29.60;47.30;;;;;;5092502;28;20259;-58
2022/04/24 14:13:46;;;;;;;17.02;9.27;;;28.20;47.30;;;;;;5093037;28;20300;-59
2022/04/24 14:16:12;;;;;;;13.80;9.88;;;26.60;50.90;;;;;;5092573;28;20480;-59
2022/04/24 14:18:37;;;;;;;17.50;10.90;;;25.80;53.00;;;;;;5109033;28;20558;-58
2022/04/24 14:33:55;;;;;;;17.73;10.52;;;25.70;53.30;;;;;;5162080;27;20951;-58
2022/04/24 14:36:21;;;;;;;27.77;10.65;;;25.30;55.50;;;;;;5129233;27;20229;-58
2022/04/24 14:38:47;;;;;;;16.33;10.00;;;25.10;55.50;;;;;;5128902;27;20241;-57
2022/04/24 14:41:13;;;;;;;20.60;10.10;;;25.10;55.30;;;;;;5128904;27;20192;-57
2022/04/24 14:43:39;;;;;;;16.10;10.05;;;25.10;55.60;;;;;;5128816;28;20186;-58
2022/04/24 14:57:02;;;;;;;23.25;9.60;;;24.60;56.50;;;;;;5128540;28;20186;-57
2022/04/24 14:59:28;;;;;;;23.17;9.35;;;24.10;57.70;;;;;;5128918;28;20187;-56
2022/04/24 15:01:54;;;;;;;15.77;9.07;;;23.80;58.30;;;;;;5128311;28;20283;-59
2022/04/24 15:04:19;;;;;;;13.63;8.50;;;23.60;59.30;;;;;;5128602;28;20276;-59
2022/04/24 15:06:45;;;;;;;14.05;7.40;;;23.30;59.20;;;;;;5128507;27;20179;-59